Terminal Aerodrome Forecast
Issued by NWS Sioux Falls, SD

Home | Current Version | Previous Version | Graphics & Text | Print | Product List | Glossary On
Versions: 1 2 3 4 5 6 7 8 9 10 11 12 13 14 15 16 17 18 19 20 21 22 23 24 25 26 27 28 29 30 31
000
FTUS43 KFSD 222214 AAC
TAFSUX
TAF AMD
KSUX 222214Z 2222/2318 32008KT 6SM -RA BR SCT007 OVC016
      TEMPO 2222/2302 4SM -RA BR OVC007
     FM230200 33010KT 5SM -SN BR OVC008
     FM230800 34014KT 4SM -SN OVC005
     FM231500 35015G22KT 2SM -SN OVC006=

USA.gov is the U.S. government's official web portal to all federal, state and local government web resources and services.